Архив погоды в Баимре

Метеограмма Баимра
Суббота, 19 Августа
Время местн. Темп Ветер Видим Явления Облачность нижн/средн/верх Атм. давл. Влжн Точка росы ВНГО R Сост. почвы Tg s
Напр Скр Прв ур.ст ур.м изм
03:00 -1.3° Ю,Ю-В 1 2 20 км - преимущественно облачно 733 760 -0.4 100% -1.3° 1.5 км - - - -
00:00 +1.9° Ю,Ю-З 1 2 20 км - облачно с прояснениями 734 760 0 98% +1.6° 1 км - - - -
Пятница, 18 Августа
Время местн. Темп Ветер Видим Явления Облачность нижн/средн/верх Атм. давл. Влжн Точка росы ВНГО R Сост. почвы Tg s
Напр Скр Прв ур.ст ур.м изм
21:00 +4.6° З 1 3 20 км - облачно с прояснениями 734 760 0 93% +3.6° 1 км 0 - - -
18:00 +8.8° С 1 5 20 км - преимущественно облачно 734 760 -0.5 64% +2.3° более 2.5 км - - - -
15:00 +8.6° С-З 2 6 20 км - облачно с прояснениями 734 760 -0.4 66% +2.7° 1 км - - - -
12:00 +7.3° С 2 6 20 км - преимущественно облачно 735 761 0 75% +3.2° 1 км - - - -
09:00 +5.2° С 3 5 20 км - облачно 735 761 +0.3 89% +3.5° 600 м 0 Влажная (без луж) +6° -
06:00 +4° С-З 2 6 20 км - облачно 734 761 +1 90% +2.5° 600 м - - - -
03:00 +4.9° З,С-З 3 7 20 км - облачно 733 759 +0.8 95% +4.2° 600 м - - - -
00:00 +5.7° С-З 3 8 20 км ливневый дождь облачно 733 759 +1.6 94% +4.8° 600 м - - - -
Четверг, 17 Августа
Время местн. Темп Ветер Видим Явления Облачность нижн/средн/верх Атм. давл. Влжн Точка росы ВНГО R Сост. почвы Tg s
Напр Скр Прв ур.ст ур.м изм
21:00 +7.4° С 3 8 4 км слабый ливневый дождь облачно 731 757 +2.2 95% +6.7° 600 м 6 - - -
18:00 +11.7° С 3 9 2 км умеренный или сильный ливневый дождь облачно 729 754 +1.3 95% +11° 600 м - - - -
15:00 +14° С 3 9 4 км слабый ливневый дождь облачно 728 753 +0.6 96% +13.4° 600 м - - - -
12:00 +18.4° С 1 9 20 км небо без изменений {ливневые осадки, дождь} облачно 727 752 +0.2 81% +15° 600 м - - - -
09:00 +18.4° З,С-З 3 13 20 км небо без изменений {ливневые осадки} облачно 727 751 +1 72% +13.3° 1 км 0.4 Влажная (без луж) +13° -
06:00 +18.9° З 5 11 4 км слабый ливневый дождь облачно 726 750 -0.8 69% +13.2° 1 км - - - -
03:00 +17.3° Ю 2 6 4 км слабый ливневый дождь облачно 727 751 -1.1 72% +12.2° 1 км - - - -
00:00 +21° З 3 8 20 км - облачно 728 752 -0.8 48% +9.7° 1.5 км - - - -
Среда, 16 Августа
Время местн. Темп Ветер Видим Явления Облачность нижн/средн/верх Атм. давл. Влжн Точка росы ВНГО R Сост. почвы Tg s
Напр Скр Прв ур.ст ур.м изм
21:00 +20.9° З 2 10 20 км - переменная облачность 728 753 -0.5 42% +7.6° более 2.5 км 0 - - -
18:00 +25.3° З 5 10 20 км - переменная облачность 729 753 -1.9 24% +3.4° более 2.5 км - - - -
15:00 +24.7° З 4 11 20 км - переменная облачность 731 755 -2.3 29% +5.5° более 2.5 км - - - -
12:00 +22° З 3 7 20 км - облачно 733 758 -2.2 33% +5.1° более 2.5 км - - - -
09:00 +15.6° Ю,Ю-В 2 4 20 км - облачно с прояснениями 735 760 -1.5 68% +9.7° более 2.5 км 0 Влажная (без луж) +5° -
03:00 +5.4° Ю-В 3 4 20 км - переменная облачность 738 764 -1 97% +4.9° более 2.5 км - - - -
Вторник, 15 Августа
Время местн. Темп Ветер Видим Явления Облачность нижн/средн/верх Атм. давл. Влжн Точка росы ВНГО R Сост. почвы Tg s
Напр Скр Прв ур.ст ур.м изм
21:00 +12.6° Ю 1 5 20 км - облачно 739 765 -0.4 87% +10.5° 1 км 0 - - -
18:00 +15.2° З 1 6 20 км - преимущественно облачно 739 765 -0.1 66% +8.9° 1 км - - - -